Terminal Aerodrome Forecast
Issued by NWS

Current Version | Previous Version | Graphics & Text | Print | Product List | Glossary On
Versions: 1 2 3 4 5 6 7 8 9 10 11 12 13 14 15 16 17 18 19 20 21 22 23 24 25 26 27 28 29 30 31
000
FTUS41 KILN 272300
TAFLUK
TAF
KLUK 272340Z 2800/2824 23004KT 4SM -RA BR OVC012
     FM280400 27005KT 4SM -RA BR OVC008
     FM280800 33008KT 4SM -RA BR OVC012
      TEMPO 2808/2811 OVC008
     FM281100 34008KT 5SM BR VCSH OVC012
     FM281400 34008KT P6SM OVC016
     FM281800 34008KT P6SM OVC025=

USA.gov is the U.S. government's official web portal to all federal, state and local government web resources and services.